sensor_id;sensor_type;location;lat;lon;timestamp;temperature;humidity
16485;DHT22;8353;47.856;12.344;2022-08-14T00:02:23;21.70;96.90
16485;DHT22;8353;47.856;12.344;2022-08-14T00:04:53;21.60;97.10
16485;DHT22;8353;47.856;12.344;2022-08-14T00:07:24;21.50;97.10
16485;DHT22;8353;47.856;12.344;2022-08-14T00:09:55;21.50;97.10
16485;DHT22;8353;47.856;12.344;2022-08-14T00:12:26;21.50;97.00
16485;DHT22;8353;47.856;12.344;2022-08-14T00:14:59;21.50;97.10
16485;DHT22;8353;47.856;12.344;2022-08-14T00:17:29;21.50;96.90
16485;DHT22;8353;47.856;12.344;2022-08-14T00:20:00;21.50;97.00
16485;DHT22;8353;47.856;12.344;2022-08-14T00:22:34;21.50;97.10
16485;DHT22;8353;47.856;12.344;2022-08-14T00:25:06;21.50;97.00
16485;DHT22;8353;47.856;12.344;2022-08-14T00:27:37;21.40;97.00
16485;DHT22;8353;47.856;12.344;2022-08-14T00:30:11;21.40;97.10
16485;DHT22;8353;47.856;12.344;2022-08-14T00:32:43;21.40;97.10
16485;DHT22;8353;47.856;12.344;2022-08-14T00:35:13;21.30;97.10
16485;DHT22;8353;47.856;12.344;2022-08-14T00:37:44;21.30;97.20
16485;DHT22;8353;47.856;12.344;2022-08-14T00:40:17;21.30;97.30
16485;DHT22;8353;47.856;12.344;2022-08-14T00:42:48;21.20;97.30
16485;DHT22;8353;47.856;12.344;2022-08-14T00:45:20;21.10;97.80
16485;DHT22;8353;47.856;12.344;2022-08-14T00:47:50;21.00;97.50
16485;DHT22;8353;47.856;12.344;2022-08-14T00:50:21;21.00;97.60
16485;DHT22;8353;47.856;12.344;2022-08-14T00:52:52;20.80;97.90
16485;DHT22;8353;47.856;12.344;2022-08-14T00:55:24;20.60;98.20
16485;DHT22;8353;47.856;12.344;2022-08-14T00:57:57;20.30;98.70
16485;DHT22;8353;47.856;12.344;2022-08-14T01:01:04;20.30;98.70
16485;DHT22;8353;47.856;12.344;2022-08-14T01:03:37;20.40;98.40
16485;DHT22;8353;47.856;12.344;2022-08-14T01:06:11;20.40;98.40
16485;DHT22;8353;47.856;12.344;2022-08-14T01:08:45;20.50;98.30
16485;DHT22;8353;47.856;12.344;2022-08-14T01:11:18;20.60;98.20
16485;DHT22;8353;47.856;12.344;2022-08-14T01:13:49;20.60;98.10
16485;DHT22;8353;47.856;12.344;2022-08-14T01:16:26;20.60;98.10
16485;DHT22;8353;47.856;12.344;2022-08-14T01:18:58;20.70;97.90
16485;DHT22;8353;47.856;12.344;2022-08-14T01:21:47;20.60;98.00
16485;DHT22;8353;47.856;12.344;2022-08-14T01:24:18;20.30;98.20
16485;DHT22;8353;47.856;12.344;2022-08-14T01:26:49;20.10;98.40
16485;DHT22;8353;47.856;12.344;2022-08-14T01:29:21;20.10;98.50
16485;DHT22;8353;47.856;12.344;2022-08-14T01:31:56;20.30;98.40
16485;DHT22;8353;47.856;12.344;2022-08-14T01:34:32;20.40;98.20
16485;DHT22;8353;47.856;12.344;2022-08-14T01:37:04;20.50;98.10
16485;DHT22;8353;47.856;12.344;2022-08-14T01:39:35;20.50;98.10
16485;DHT22;8353;47.856;12.344;2022-08-14T01:42:06;20.40;98.10
16485;DHT22;8353;47.856;12.344;2022-08-14T01:44:37;20.40;98.20
16485;DHT22;8353;47.856;12.344;2022-08-14T01:47:09;20.50;98.20
16485;DHT22;8353;47.856;12.344;2022-08-14T01:49:42;20.40;98.20
16485;DHT22;8353;47.856;12.344;2022-08-14T01:52:14;20.50;98.20
16485;DHT22;8353;47.856;12.344;2022-08-14T01:54:46;20.50;98.50
16485;DHT22;8353;47.856;12.344;2022-08-14T01:57:16;20.20;98.70
16485;DHT22;8353;47.856;12.344;2022-08-14T01:59:47;19.90;99.20
16485;DHT22;8353;47.856;12.344;2022-08-14T02:02:18;20.00;98.90
16485;DHT22;8353;47.856;12.344;2022-08-14T02:04:48;20.20;98.60
16485;DHT22;8353;47.856;12.344;2022-08-14T02:07:20;20.20;98.60
16485;DHT22;8353;47.856;12.344;2022-08-14T02:09:51;20.20;98.60
16485;DHT22;8353;47.856;12.344;2022-08-14T02:12:22;20.20;98.60
16485;DHT22;8353;47.856;12.344;2022-08-14T02:14:54;20.30;98.60
16485;DHT22;8353;47.856;12.344;2022-08-14T02:17:24;20.30;98.50
16485;DHT22;8353;47.856;12.344;2022-08-14T02:19:55;20.40;98.50
16485;DHT22;8353;47.856;12.344;2022-08-14T02:22:27;20.30;98.40
16485;DHT22;8353;47.856;12.344;2022-08-14T02:24:58;20.10;99.00
16485;DHT22;8353;47.856;12.344;2022-08-14T02:27:28;20.00;99.00
16485;DHT22;8353;47.856;12.344;2022-08-14T02:29:59;20.00;99.00
16485;DHT22;8353;47.856;12.344;2022-08-14T02:32:30;19.90;99.30
16485;DHT22;8353;47.856;12.344;2022-08-14T02:35:04;19.60;99.90
16485;DHT22;8353;47.856;12.344;2022-08-14T02:37:39;19.10;99.90
16485;DHT22;8353;47.856;12.344;2022-08-14T02:40:11;18.70;99.90
16485;DHT22;8353;47.856;12.344;2022-08-14T02:42:43;19.10;99.90
16485;DHT22;8353;47.856;12.344;2022-08-14T02:45:14;19.30;99.90
16485;DHT22;8353;47.856;12.344;2022-08-14T02:47:44;19.50;99.90
16485;DHT22;8353;47.856;12.344;2022-08-14T02:50:15;19.60;99.90
16485;DHT22;8353;47.856;12.344;2022-08-14T02:52:47;19.00;99.90
16485;DHT22;8353;47.856;12.344;2022-08-14T02:55:17;19.10;99.90
16485;DHT22;8353;47.856;12.344;2022-08-14T02:57:49;19.30;99.90
16485;DHT22;8353;47.856;12.344;2022-08-14T03:00:21;19.50;99.90
16485;DHT22;8353;47.856;12.344;2022-08-14T03:02:51;19.60;99.90
16485;DHT22;8353;47.856;12.344;2022-08-14T03:05:22;19.70;99.90
16485;DHT22;8353;47.856;12.344;2022-08-14T03:08:03;19.70;99.90
16485;DHT22;8353;47.856;12.344;2022-08-14T03:10:34;19.60;99.90
16485;DHT22;8353;47.856;12.344;2022-08-14T03:13:06;19.30;99.90
16485;DHT22;8353;47.856;12.344;2022-08-14T03:15:37;18.90;99.90
16485;DHT22;8353;47.856;12.344;2022-08-14T03:18:12;19.10;99.90
16485;DHT22;8353;47.856;12.344;2022-08-14T03:20:43;19.30;99.90
16485;DHT22;8353;47.856;12.344;2022-08-14T03:23:16;19.50;99.90
16485;DHT22;8353;47.856;12.344;2022-08-14T03:25:46;19.50;99.90
16485;DHT22;8353;47.856;12.344;2022-08-14T03:28:18;19.60;99.90
16485;DHT22;8353;47.856;12.344;2022-08-14T03:30:48;19.60;99.90
16485;DHT22;8353;47.856;12.344;2022-08-14T03:33:18;19.70;99.90
16485;DHT22;8353;47.856;12.344;2022-08-14T03:35:49;19.70;99.90
16485;DHT22;8353;47.856;12.344;2022-08-14T03:38:22;19.70;99.90
16485;DHT22;8353;47.856;12.344;2022-08-14T03:40:53;19.20;99.90
16485;DHT22;8353;47.856;12.344;2022-08-14T03:43:24;19.10;99.90
16485;DHT22;8353;47.856;12.344;2022-08-14T03:45:55;19.30;99.90
16485;DHT22;8353;47.856;12.344;2022-08-14T03:48:25;19.30;99.90
16485;DHT22;8353;47.856;12.344;2022-08-14T03:50:56;19.00;99.90
16485;DHT22;8353;47.856;12.344;2022-08-14T03:53:27;19.00;99.90
16485;DHT22;8353;47.856;12.344;2022-08-14T03:55:58;19.10;99.90
16485;DHT22;8353;47.856;12.344;2022-08-14T03:58:29;19.20;99.90
16485;DHT22;8353;47.856;12.344;2022-08-14T04:01:00;19.30;99.90
16485;DHT22;8353;47.856;12.344;2022-08-14T04:03:31;19.40;99.90
16485;DHT22;8353;47.856;12.344;2022-08-14T04:06:02;19.40;99.90
16485;DHT22;8353;47.856;12.344;2022-08-14T04:08:36;19.40;99.90
16485;DHT22;8353;47.856;12.344;2022-08-14T04:11:07;19.50;99.90
16485;DHT22;8353;47.856;12.344;2022-08-14T04:13:41;19.20;99.90
16485;DHT22;8353;47.856;12.344;2022-08-14T04:16:14;19.10;99.90
16485;DHT22;8353;47.856;12.344;2022-08-14T04:18:48;19.20;99.90
16485;DHT22;8353;47.856;12.344;2022-08-14T04:21:20;19.30;99.90
16485;DHT22;8353;47.856;12.344;2022-08-14T04:23:55;19.30;99.90
16485;DHT22;8353;47.856;12.344;2022-08-14T04:26:29;19.40;99.90
16485;DHT22;8353;47.856;12.344;2022-08-14T04:29:00;19.40;99.90
16485;DHT22;8353;47.856;12.344;2022-08-14T04:31:31;19.40;99.90
16485;DHT22;8353;47.856;12.344;2022-08-14T04:34:02;19.40;99.90
16485;DHT22;8353;47.856;12.344;2022-08-14T04:36:34;19.40;99.90
16485;DHT22;8353;47.856;12.344;2022-08-14T04:39:26;19.40;99.90
16485;DHT22;8353;47.856;12.344;2022-08-14T04:42:14;19.30;99.90
16485;DHT22;8353;47.856;12.344;2022-08-14T04:45:05;19.40;99.90
16485;DHT22;8353;47.856;12.344;2022-08-14T04:47:36;19.40;99.90
16485;DHT22;8353;47.856;12.344;2022-08-14T04:50:39;19.30;99.90
16485;DHT22;8353;47.856;12.344;2022-08-14T04:53:13;19.20;99.90
16485;DHT22;8353;47.856;12.344;2022-08-14T04:55:47;19.10;99.90
16485;DHT22;8353;47.856;12.344;2022-08-14T04:58:34;19.10;99.90
16485;DHT22;8353;47.856;12.344;2022-08-14T05:01:07;19.20;99.90
16485;DHT22;8353;47.856;12.344;2022-08-14T05:03:39;19.20;99.90
16485;DHT22;8353;47.856;12.344;2022-08-14T05:06:12;19.20;99.90
16485;DHT22;8353;47.856;12.344;2022-08-14T05:08:42;19.40;99.90
16485;DHT22;8353;47.856;12.344;2022-08-14T05:11:15;19.30;99.90
16485;DHT22;8353;47.856;12.344;2022-08-14T05:13:47;19.40;99.90
16485;DHT22;8353;47.856;12.344;2022-08-14T05:16:18;19.40;99.90
16485;DHT22;8353;47.856;12.344;2022-08-14T05:18:49;19.50;99.90
16485;DHT22;8353;47.856;12.344;2022-08-14T05:21:20;19.50;99.90
16485;DHT22;8353;47.856;12.344;2022-08-14T05:23:51;19.60;99.90
16485;DHT22;8353;47.856;12.344;2022-08-14T05:26:24;19.60;99.90
16485;DHT22;8353;47.856;12.344;2022-08-14T05:28:55;19.60;99.90
16485;DHT22;8353;47.856;12.344;2022-08-14T05:31:26;19.50;99.90
16485;DHT22;8353;47.856;12.344;2022-08-14T05:33:56;19.60;99.90
16485;DHT22;8353;47.856;12.344;2022-08-14T05:36:26;19.40;99.90
16485;DHT22;8353;47.856;12.344;2022-08-14T05:38:59;19.50;99.90
16485;DHT22;8353;47.856;12.344;2022-08-14T05:41:31;19.60;99.90
16485;DHT22;8353;47.856;12.344;2022-08-14T05:44:03;19.50;99.90
16485;DHT22;8353;47.856;12.344;2022-08-14T05:46:33;19.50;99.90
16485;DHT22;8353;47.856;12.344;2022-08-14T05:49:04;19.60;99.90
16485;DHT22;8353;47.856;12.344;2022-08-14T05:51:34;19.60;99.90
16485;DHT22;8353;47.856;12.344;2022-08-14T05:54:05;19.70;99.90
16485;DHT22;8353;47.856;12.344;2022-08-14T05:56:38;19.80;99.90
16485;DHT22;8353;47.856;12.344;2022-08-14T05:59:09;19.80;99.90
16485;DHT22;8353;47.856;12.344;2022-08-14T06:01:40;19.90;99.90
16485;DHT22;8353;47.856;12.344;2022-08-14T06:04:11;19.90;99.90
16485;DHT22;8353;47.856;12.344;2022-08-14T06:06:42;20.00;99.90
16485;DHT22;8353;47.856;12.344;2022-08-14T06:09:12;20.00;99.90
16485;DHT22;8353;47.856;12.344;2022-08-14T06:11:44;20.00;99.90
16485;DHT22;8353;47.856;12.344;2022-08-14T06:14:16;19.80;99.90
16485;DHT22;8353;47.856;12.344;2022-08-14T06:16:47;20.00;99.90
16485;DHT22;8353;47.856;12.344;2022-08-14T06:19:17;20.00;99.90
16485;DHT22;8353;47.856;12.344;2022-08-14T06:21:48;20.20;99.90
16485;DHT22;8353;47.856;12.344;2022-08-14T06:24:19;20.20;99.90
16485;DHT22;8353;47.856;12.344;2022-08-14T06:26:53;20.20;99.90
16485;DHT22;8353;47.856;12.344;2022-08-14T06:29:24;20.30;99.90
16485;DHT22;8353;47.856;12.344;2022-08-14T06:31:54;20.20;99.90
16485;DHT22;8353;47.856;12.344;2022-08-14T06:34:25;20.50;99.90
16485;DHT22;8353;47.856;12.344;2022-08-14T06:36:55;20.70;99.90
16485;DHT22;8353;47.856;12.344;2022-08-14T06:39:25;20.90;99.90
16485;DHT22;8353;47.856;12.344;2022-08-14T06:41:57;20.90;99.90
16485;DHT22;8353;47.856;12.344;2022-08-14T06:44:28;21.20;99.90
16485;DHT22;8353;47.856;12.344;2022-08-14T06:47:00;21.50;99.90
16485;DHT22;8353;47.856;12.344;2022-08-14T06:49:30;21.60;99.90
16485;DHT22;8353;47.856;12.344;2022-08-14T06:52:01;21.70;99.90
16485;DHT22;8353;47.856;12.344;2022-08-14T06:54:31;21.90;99.90
16485;DHT22;8353;47.856;12.344;2022-08-14T06:57:04;22.20;99.90
16485;DHT22;8353;47.856;12.344;2022-08-14T06:59:35;22.30;99.90
16485;DHT22;8353;47.856;12.344;2022-08-14T07:02:10;22.30;99.90
16485;DHT22;8353;47.856;12.344;2022-08-14T07:04:58;22.40;99.90
16485;DHT22;8353;47.856;12.344;2022-08-14T07:07:46;22.60;99.90
16485;DHT22;8353;47.856;12.344;2022-08-14T07:10:16;22.70;99.90
16485;DHT22;8353;47.856;12.344;2022-08-14T07:12:51;22.60;99.90
16485;DHT22;8353;47.856;12.344;2022-08-14T07:15:22;22.60;99.90
16485;DHT22;8353;47.856;12.344;2022-08-14T07:17:53;22.80;99.90
16485;DHT22;8353;47.856;12.344;2022-08-14T07:20:24;22.80;99.90
16485;DHT22;8353;47.856;12.344;2022-08-14T07:22:56;22.80;99.90
16485;DHT22;8353;47.856;12.344;2022-08-14T07:25:28;22.90;99.90
16485;DHT22;8353;47.856;12.344;2022-08-14T07:28:01;23.10;99.90
16485;DHT22;8353;47.856;12.344;2022-08-14T07:30:37;23.40;99.90
16485;DHT22;8353;47.856;12.344;2022-08-14T07:33:09;23.30;99.90
16485;DHT22;8353;47.856;12.344;2022-08-14T07:35:40;23.60;99.90
16485;DHT22;8353;47.856;12.344;2022-08-14T07:38:16;23.80;99.90
16485;DHT22;8353;47.856;12.344;2022-08-14T07:40:49;24.10;99.90
16485;DHT22;8353;47.856;12.344;2022-08-14T07:43:21;24.30;99.90
16485;DHT22;8353;47.856;12.344;2022-08-14T07:45:52;24.40;99.90
16485;DHT22;8353;47.856;12.344;2022-08-14T07:48:23;24.40;99.90
16485;DHT22;8353;47.856;12.344;2022-08-14T07:50:54;24.60;99.90
16485;DHT22;8353;47.856;12.344;2022-08-14T07:53:24;24.50;99.90
16485;DHT22;8353;47.856;12.344;2022-08-14T07:55:55;24.60;99.90
16485;DHT22;8353;47.856;12.344;2022-08-14T07:58:28;24.90;99.90
16485;DHT22;8353;47.856;12.344;2022-08-14T08:00:59;25.00;99.90
16485;DHT22;8353;47.856;12.344;2022-08-14T08:03:37;25.20;99.80
16485;DHT22;8353;47.856;12.344;2022-08-14T08:06:10;25.30;99.90
16485;DHT22;8353;47.856;12.344;2022-08-14T08:08:41;25.60;99.30
16485;DHT22;8353;47.856;12.344;2022-08-14T08:11:13;25.60;97.60
16485;DHT22;8353;47.856;12.344;2022-08-14T08:13:46;25.60;98.00
16485;DHT22;8353;47.856;12.344;2022-08-14T08:16:19;25.70;95.90
16485;DHT22;8353;47.856;12.344;2022-08-14T08:18:52;25.70;97.30
16485;DHT22;8353;47.856;12.344;2022-08-14T08:21:23;25.70;96.80
16485;DHT22;8353;47.856;12.344;2022-08-14T08:23:55;26.00;97.80
16485;DHT22;8353;47.856;12.344;2022-08-14T08:26:28;26.00;98.00
16485;DHT22;8353;47.856;12.344;2022-08-14T08:29:01;26.10;98.40
16485;DHT22;8353;47.856;12.344;2022-08-14T08:31:31;26.10;97.70
16485;DHT22;8353;47.856;12.344;2022-08-14T08:34:05;26.10;97.50
16485;DHT22;8353;47.856;12.344;2022-08-14T08:36:39;26.40;97.30
16485;DHT22;8353;47.856;12.344;2022-08-14T08:39:09;26.60;96.20
16485;DHT22;8353;47.856;12.344;2022-08-14T08:41:42;26.40;95.40
16485;DHT22;8353;47.856;12.344;2022-08-14T08:44:14;26.40;95.60
16485;DHT22;8353;47.856;12.344;2022-08-14T08:46:45;26.60;94.50
16485;DHT22;8353;47.856;12.344;2022-08-14T08:49:37;26.40;94.50
16485;DHT22;8353;47.856;12.344;2022-08-14T08:52:10;26.50;94.90
16485;DHT22;8353;47.856;12.344;2022-08-14T08:54:52;26.20;94.60
16485;DHT22;8353;47.856;12.344;2022-08-14T08:57:22;26.40;95.60
16485;DHT22;8353;47.856;12.344;2022-08-14T08:59:54;26.80;96.00
16485;DHT22;8353;47.856;12.344;2022-08-14T09:02:26;26.90;95.30
16485;DHT22;8353;47.856;12.344;2022-08-14T09:05:00;27.20;95.30
16485;DHT22;8353;47.856;12.344;2022-08-14T09:07:32;27.10;94.20
16485;DHT22;8353;47.856;12.344;2022-08-14T09:10:05;27.10;94.50
16485;DHT22;8353;47.856;12.344;2022-08-14T09:12:36;27.20;94.40
16485;DHT22;8353;47.856;12.344;2022-08-14T09:15:10;27.30;94.60
16485;DHT22;8353;47.856;12.344;2022-08-14T09:17:42;27.30;94.80
16485;DHT22;8353;47.856;12.344;2022-08-14T09:20:13;27.50;95.00
16485;DHT22;8353;47.856;12.344;2022-08-14T09:22:44;27.50;94.60
16485;DHT22;8353;47.856;12.344;2022-08-14T09:25:17;27.40;95.30
16485;DHT22;8353;47.856;12.344;2022-08-14T09:27:47;27.30;96.00
16485;DHT22;8353;47.856;12.344;2022-08-14T09:30:19;27.60;95.30
16485;DHT22;8353;47.856;12.344;2022-08-14T09:33:06;27.80;95.10
16485;DHT22;8353;47.856;12.344;2022-08-14T09:35:48;27.90;95.10
16485;DHT22;8353;47.856;12.344;2022-08-14T09:38:27;28.10;94.60
16485;DHT22;8353;47.856;12.344;2022-08-14T09:41:09;28.40;92.70
16485;DHT22;8353;47.856;12.344;2022-08-14T09:43:53;28.20;91.10
16485;DHT22;8353;47.856;12.344;2022-08-14T09:46:28;28.40;91.60
16485;DHT22;8353;47.856;12.344;2022-08-14T09:48:59;28.80;92.80
16485;DHT22;8353;47.856;12.344;2022-08-14T09:51:31;28.80;91.70
16485;DHT22;8353;47.856;12.344;2022-08-14T09:54:03;28.80;91.20
16485;DHT22;8353;47.856;12.344;2022-08-14T09:56:43;28.80;91.00
16485;DHT22;8353;47.856;12.344;2022-08-14T09:59:16;29.00;91.10
16485;DHT22;8353;47.856;12.344;2022-08-14T10:01:52;29.10;90.20
16485;DHT22;8353;47.856;12.344;2022-08-14T10:04:25;28.70;90.40
16485;DHT22;8353;47.856;12.344;2022-08-14T10:07:01;28.50;91.70
16485;DHT22;8353;47.856;12.344;2022-08-14T10:09:32;28.80;91.40
16485;DHT22;8353;47.856;12.344;2022-08-14T10:12:03;28.80;90.90
16485;DHT22;8353;47.856;12.344;2022-08-14T10:14:35;29.00;91.80
16485;DHT22;8353;47.856;12.344;2022-08-14T10:17:07;29.50;91.80
16485;DHT22;8353;47.856;12.344;2022-08-14T10:19:47;29.60;92.70
16485;DHT22;8353;47.856;12.344;2022-08-14T10:22:23;30.10;91.50
16485;DHT22;8353;47.856;12.344;2022-08-14T10:24:56;30.40;91.90
16485;DHT22;8353;47.856;12.344;2022-08-14T10:27:28;30.30;90.40
16485;DHT22;8353;47.856;12.344;2022-08-14T10:30:00;30.10;91.30
16485;DHT22;8353;47.856;12.344;2022-08-14T10:32:42;30.10;91.80
16485;DHT22;8353;47.856;12.344;2022-08-14T10:35:13;30.10;90.70
16485;DHT22;8353;47.856;12.344;2022-08-14T10:37:46;30.20;89.60
16485;DHT22;8353;47.856;12.344;2022-08-14T10:40:25;30.20;90.90
16485;DHT22;8353;47.856;12.344;2022-08-14T10:42:57;30.10;90.60
16485;DHT22;8353;47.856;12.344;2022-08-14T10:45:30;30.30;90.40
16485;DHT22;8353;47.856;12.344;2022-08-14T10:48:13;30.30;88.70
16485;DHT22;8353;47.856;12.344;2022-08-14T10:50:45;30.20;88.80
16485;DHT22;8353;47.856;12.344;2022-08-14T10:53:28;30.00;88.00
16485;DHT22;8353;47.856;12.344;2022-08-14T10:56:00;30.10;89.50
16485;DHT22;8353;47.856;12.344;2022-08-14T10:58:33;30.40;90.90
16485;DHT22;8353;47.856;12.344;2022-08-14T11:01:04;30.60;91.40
16485;DHT22;8353;47.856;12.344;2022-08-14T11:03:39;30.70;88.90
16485;DHT22;8353;47.856;12.344;2022-08-14T11:06:13;31.00;90.20
16485;DHT22;8353;47.856;12.344;2022-08-14T11:08:48;31.00;85.60
16485;DHT22;8353;47.856;12.344;2022-08-14T11:11:21;31.20;89.70
16485;DHT22;8353;47.856;12.344;2022-08-14T11:13:56;31.20;85.30
16485;DHT22;8353;47.856;12.344;2022-08-14T11:16:26;31.00;85.20
16485;DHT22;8353;47.856;12.344;2022-08-14T11:19:02;30.80;87.40
16485;DHT22;8353;47.856;12.344;2022-08-14T11:21:36;30.80;88.80
16485;DHT22;8353;47.856;12.344;2022-08-14T11:24:11;31.20;89.00
16485;DHT22;8353;47.856;12.344;2022-08-14T11:26:43;31.50;85.30
16485;DHT22;8353;47.856;12.344;2022-08-14T11:29:14;31.70;87.00
16485;DHT22;8353;47.856;12.344;2022-08-14T11:31:45;31.70;82.90
16485;DHT22;8353;47.856;12.344;2022-08-14T11:34:17;31.80;88.30
16485;DHT22;8353;47.856;12.344;2022-08-14T11:36:47;32.20;87.90
16485;DHT22;8353;47.856;12.344;2022-08-14T11:39:23;32.20;83.00
16485;DHT22;8353;47.856;12.344;2022-08-14T11:41:54;32.00;80.60
16485;DHT22;8353;47.856;12.344;2022-08-14T11:44:26;31.70;84.90
16485;DHT22;8353;47.856;12.344;2022-08-14T11:46:57;31.90;84.50
16485;DHT22;8353;47.856;12.344;2022-08-14T11:49:31;31.90;84.80
16485;DHT22;8353;47.856;12.344;2022-08-14T11:52:03;32.10;84.30
16485;DHT22;8353;47.856;12.344;2022-08-14T11:54:36;32.30;84.60
16485;DHT22;8353;47.856;12.344;2022-08-14T11:57:13;32.60;83.70
16485;DHT22;8353;47.856;12.344;2022-08-14T11:59:43;32.30;81.70
16485;DHT22;8353;47.856;12.344;2022-08-14T12:02:16;32.00;81.20
16485;DHT22;8353;47.856;12.344;2022-08-14T12:04:52;32.00;81.80
16485;DHT22;8353;47.856;12.344;2022-08-14T12:07:23;32.20;79.90
16485;DHT22;8353;47.856;12.344;2022-08-14T12:09:55;31.90;85.10
16485;DHT22;8353;47.856;12.344;2022-08-14T12:12:27;31.70;80.10
16485;DHT22;8353;47.856;12.344;2022-08-14T12:15:00;31.40;79.80
16485;DHT22;8353;47.856;12.344;2022-08-14T12:17:33;31.60;85.70
16485;DHT22;8353;47.856;12.344;2022-08-14T12:20:13;32.10;80.00
16485;DHT22;8353;47.856;12.344;2022-08-14T12:22:45;32.20;83.10
16485;DHT22;8353;47.856;12.344;2022-08-14T12:25:19;32.40;85.90
16485;DHT22;8353;47.856;12.344;2022-08-14T12:27:51;32.50;83.20
16485;DHT22;8353;47.856;12.344;2022-08-14T12:30:31;33.00;81.10
16485;DHT22;8353;47.856;12.344;2022-08-14T12:33:02;33.00;78.10
16485;DHT22;8353;47.856;12.344;2022-08-14T12:35:40;32.50;80.70
16485;DHT22;8353;47.856;12.344;2022-08-14T12:38:12;32.50;81.40
16485;DHT22;8353;47.856;12.344;2022-08-14T12:40:47;32.30;79.50
16485;DHT22;8353;47.856;12.344;2022-08-14T12:43:19;32.20;80.00
16485;DHT22;8353;47.856;12.344;2022-08-14T12:45:52;31.80;83.30
16485;DHT22;8353;47.856;12.344;2022-08-14T12:48:23;32.00;80.80
16485;DHT22;8353;47.856;12.344;2022-08-14T12:50:58;32.40;80.00
16485;DHT22;8353;47.856;12.344;2022-08-14T12:53:34;32.80;80.90
16485;DHT22;8353;47.856;12.344;2022-08-14T12:56:08;32.70;82.30
16485;DHT22;8353;47.856;12.344;2022-08-14T12:58:40;33.20;83.70
16485;DHT22;8353;47.856;12.344;2022-08-14T13:01:17;33.70;81.30
16485;DHT22;8353;47.856;12.344;2022-08-14T13:03:48;34.00;79.00
16485;DHT22;8353;47.856;12.344;2022-08-14T13:06:25;34.00;81.20
16485;DHT22;8353;47.856;12.344;2022-08-14T13:08:58;33.80;77.10
16485;DHT22;8353;47.856;12.344;2022-08-14T13:11:36;33.40;75.50
16485;DHT22;8353;47.856;12.344;2022-08-14T13:14:09;33.00;81.30
16485;DHT22;8353;47.856;12.344;2022-08-14T13:16:43;33.00;79.20
16485;DHT22;8353;47.856;12.344;2022-08-14T13:19:15;33.00;78.10
16485;DHT22;8353;47.856;12.344;2022-08-14T13:21:49;33.00;76.40
16485;DHT22;8353;47.856;12.344;2022-08-14T13:24:22;32.60;76.60
16485;DHT22;8353;47.856;12.344;2022-08-14T13:26:55;33.00;77.90
16485;DHT22;8353;47.856;12.344;2022-08-14T13:29:28;33.50;79.40
16485;DHT22;8353;47.856;12.344;2022-08-14T13:32:04;34.00;77.90
16485;DHT22;8353;47.856;12.344;2022-08-14T13:34:37;34.10;72.50
16485;DHT22;8353;47.856;12.344;2022-08-14T13:37:10;33.30;73.40
16485;DHT22;8353;47.856;12.344;2022-08-14T13:39:45;33.00;74.00
16485;DHT22;8353;47.856;12.344;2022-08-14T13:42:19;32.70;74.90
16485;DHT22;8353;47.856;12.344;2022-08-14T13:44:51;33.30;78.20
16485;DHT22;8353;47.856;12.344;2022-08-14T13:47:24;33.40;72.90
16485;DHT22;8353;47.856;12.344;2022-08-14T13:49:59;32.80;74.30
16485;DHT22;8353;47.856;12.344;2022-08-14T13:52:39;32.80;77.00
16485;DHT22;8353;47.856;12.344;2022-08-14T13:55:11;33.30;76.80
16485;DHT22;8353;47.856;12.344;2022-08-14T13:57:42;33.50;75.10
16485;DHT22;8353;47.856;12.344;2022-08-14T14:00:13;33.60;75.30
16485;DHT22;8353;47.856;12.344;2022-08-14T14:02:46;33.70;79.30
16485;DHT22;8353;47.856;12.344;2022-08-14T14:05:18;34.10;74.90
16485;DHT22;8353;47.856;12.344;2022-08-14T14:07:52;34.20;78.70
16485;DHT22;8353;47.856;12.344;2022-08-14T14:10:23;34.60;78.30
16485;DHT22;8353;47.856;12.344;2022-08-14T14:12:53;34.30;75.70
16485;DHT22;8353;47.856;12.344;2022-08-14T14:15:24;33.70;73.70
16485;DHT22;8353;47.856;12.344;2022-08-14T14:17:55;33.70;75.20
16485;DHT22;8353;47.856;12.344;2022-08-14T14:20:26;33.80;78.60
16485;DHT22;8353;47.856;12.344;2022-08-14T14:22:58;34.00;75.00
16485;DHT22;8353;47.856;12.344;2022-08-14T14:25:29;33.50;74.50
16485;DHT22;8353;47.856;12.344;2022-08-14T14:28:04;33.50;77.70
16485;DHT22;8353;47.856;12.344;2022-08-14T14:30:36;34.00;74.20
16485;DHT22;8353;47.856;12.344;2022-08-14T14:33:12;33.50;75.70
16485;DHT22;8353;47.856;12.344;2022-08-14T14:35:44;33.20;76.60
16485;DHT22;8353;47.856;12.344;2022-08-14T14:38:16;33.50;76.30
16485;DHT22;8353;47.856;12.344;2022-08-14T14:40:49;33.40;76.00
16485;DHT22;8353;47.856;12.344;2022-08-14T14:43:21;33.50;75.70
16485;DHT22;8353;47.856;12.344;2022-08-14T14:45:54;33.70;78.50
16485;DHT22;8353;47.856;12.344;2022-08-14T14:48:25;33.50;74.00
16485;DHT22;8353;47.856;12.344;2022-08-14T14:50:57;33.20;74.60
16485;DHT22;8353;47.856;12.344;2022-08-14T14:53:31;33.10;75.50
16485;DHT22;8353;47.856;12.344;2022-08-14T14:56:03;33.20;75.30
16485;DHT22;8353;47.856;12.344;2022-08-14T14:58:41;33.10;74.60
16485;DHT22;8353;47.856;12.344;2022-08-14T15:01:12;33.50;76.20
16485;DHT22;8353;47.856;12.344;2022-08-14T15:03:44;33.50;76.30
16485;DHT22;8353;47.856;12.344;2022-08-14T15:06:14;33.60;74.10
16485;DHT22;8353;47.856;12.344;2022-08-14T15:08:47;33.70;75.70
16485;DHT22;8353;47.856;12.344;2022-08-14T15:11:18;33.70;73.70
16485;DHT22;8353;47.856;12.344;2022-08-14T15:13:49;33.40;77.80
16485;DHT22;8353;47.856;12.344;2022-08-14T15:16:20;33.50;74.50
16485;DHT22;8353;47.856;12.344;2022-08-14T15:19:08;33.30;74.60
16485;DHT22;8353;47.856;12.344;2022-08-14T15:21:39;32.90;74.90
16485;DHT22;8353;47.856;12.344;2022-08-14T15:24:12;32.90;75.10
16485;DHT22;8353;47.856;12.344;2022-08-14T15:26:43;33.10;74.90
16485;DHT22;8353;47.856;12.344;2022-08-14T15:29:19;33.10;75.30
16485;DHT22;8353;47.856;12.344;2022-08-14T15:31:50;33.10;75.80
16485;DHT22;8353;47.856;12.344;2022-08-14T15:34:21;33.00;74.60
16485;DHT22;8353;47.856;12.344;2022-08-14T15:36:51;32.80;74.30
16485;DHT22;8353;47.856;12.344;2022-08-14T15:39:24;32.70;75.90
16485;DHT22;8353;47.856;12.344;2022-08-14T15:41:55;33.10;76.30
16485;DHT22;8353;47.856;12.344;2022-08-14T15:44:28;33.40;77.00
16485;DHT22;8353;47.856;12.344;2022-08-14T15:47:01;33.30;74.60
16485;DHT22;8353;47.856;12.344;2022-08-14T15:49:34;33.30;74.10
16485;DHT22;8353;47.856;12.344;2022-08-14T15:52:07;33.40;76.10
16485;DHT22;8353;47.856;12.344;2022-08-14T15:54:38;33.40;74.40
16485;DHT22;8353;47.856;12.344;2022-08-14T15:57:09;33.20;74.60
16485;DHT22;8353;47.856;12.344;2022-08-14T15:59:41;33.10;75.30
16485;DHT22;8353;47.856;12.344;2022-08-14T16:02:29;33.40;73.90
16485;DHT22;8353;47.856;12.344;2022-08-14T16:04:59;33.30;74.70
16485;DHT22;8353;47.856;12.344;2022-08-14T16:07:30;33.50;74.20